Time;durP1;ratioP1;P1;durP2;ratioP2;P2;SDS_P1;SDS_P2;PMS_P1;PMS_P2;Temp;Humidity;BMP_temperature;BMP_pressure;BME280_temperature;BME280_humidity;BME280_pressure;Samples;Min_cycle;Max_cycle;Signal;HPM_P1;HPM_P2
2023/01/02 00:02:26;;;;;;;16.27;6.30;;;10.70;99.90;;;;;;5032696;28;20184;-79
2023/01/02 00:04:53;;;;;;;13.40;6.68;;;10.70;99.90;;;;;;5033597;28;20564;-80
2023/01/02 00:07:18;;;;;;;10.25;5.53;;;10.70;99.90;;;;;;5084895;28;20241;-80
2023/01/02 00:09:44;;;;;;;13.60;5.85;;;10.70;99.90;;;;;;5060874;28;20627;-80
2023/01/02 00:12:10;;;;;;;11.65;6.30;;;10.70;99.90;;;;;;5048481;28;20182;-81
2023/01/02 00:14:35;;;;;;;11.05;6.22;;;10.70;99.90;;;;;;5027488;28;20280;-80
2023/01/02 00:17:01;;;;;;;11.45;5.75;;;10.70;99.90;;;;;;5012935;28;20640;-80
2023/01/02 00:19:27;;;;;;;12.52;7.05;;;10.70;99.90;;;;;;5031524;28;21849;-80
2023/01/02 00:21:53;;;;;;;12.02;6.68;;;10.60;99.90;;;;;;5031336;28;20204;-80
2023/01/02 00:24:19;;;;;;;14.77;7.72;;;10.70;99.90;;;;;;5032115;28;20262;-80
2023/01/02 00:26:45;;;;;;;13.23;8.10;;;10.70;99.90;;;;;;5031061;28;20192;-80
2023/01/02 00:29:11;;;;;;;17.33;9.95;;;10.70;99.90;;;;;;5031115;28;20188;-80
2023/01/02 00:31:36;;;;;;;15.98;9.82;;;10.70;99.90;;;;;;5032809;28;20199;-80
2023/01/02 00:34:02;;;;;;;14.85;9.40;;;10.70;99.90;;;;;;5030653;28;20183;-80
2023/01/02 00:36:28;;;;;;;13.13;8.93;;;10.70;99.90;;;;;;5047233;28;20648;-80
2023/01/02 00:38:57;;;;;;;13.82;9.15;;;10.80;99.90;;;;;;5047926;28;20230;-79
2023/01/02 00:41:23;;;;;;;15.43;9.45;;;10.80;99.90;;;;;;5046572;28;20180;-78
2023/01/02 00:43:49;;;;;;;17.70;9.30;;;10.80;99.90;;;;;;5048803;28;20180;-78
2023/01/02 00:46:14;;;;;;;13.80;8.68;;;10.90;99.90;;;;;;5053215;28;20628;-79
2023/01/02 00:48:40;;;;;;;14.13;8.90;;;10.90;99.90;;;;;;5033315;28;20251;-79
2023/01/02 00:51:06;;;;;;;13.52;8.98;;;10.90;99.90;;;;;;5015754;28;20192;-79
2023/01/02 00:53:33;;;;;;;13.30;8.77;;;10.90;99.90;;;;;;5048884;28;20181;-79
2023/01/02 00:55:59;;;;;;;13.52;8.70;;;10.90;99.90;;;;;;5033607;28;20191;-85
2023/01/02 00:58:25;;;;;;;12.75;8.45;;;11.00;99.90;;;;;;5050849;28;20622;-79
2023/01/02 01:00:51;;;;;;;14.27;7.72;;;11.00;99.90;;;;;;5049992;28;20190;-78
2023/01/02 01:03:16;;;;;;;12.10;8.40;;;11.00;99.90;;;;;;5034870;28;20177;-81
2023/01/02 01:05:42;;;;;;;12.65;7.65;;;11.00;99.90;;;;;;5057952;28;20184;-79
2023/01/02 01:08:08;;;;;;;11.30;7.55;;;11.00;99.90;;;;;;5034632;28;20269;-79
2023/01/02 01:10:36;;;;;;;12.60;7.50;;;11.10;99.90;;;;;;5029068;28;20640;-79
2023/01/02 01:13:02;;;;;;;10.35;6.97;;;11.10;99.90;;;;;;5016331;28;20231;-79
2023/01/02 01:15:27;;;;;;;11.52;7.20;;;11.10;99.90;;;;;;5063469;28;20207;-79
2023/01/02 01:17:53;;;;;;;10.02;6.53;;;11.10;99.90;;;;;;5067816;28;20263;-80
2023/01/02 01:20:19;;;;;;;9.90;6.97;;;11.10;99.90;;;;;;5017469;28;20192;-80
2023/01/02 01:22:45;;;;;;;9.88;6.45;;;11.20;99.90;;;;;;5050974;28;20195;-80
2023/01/02 01:25:11;;;;;;;10.48;6.10;;;11.20;99.90;;;;;;5042452;28;20184;-79
2023/01/02 01:27:37;;;;;;;11.32;6.70;;;11.20;99.90;;;;;;5033530;28;20184;-79
2023/01/02 01:30:04;;;;;;;10.25;6.97;;;11.20;99.90;;;;;;5034686;28;20183;-79
2023/01/02 01:32:30;;;;;;;12.50;7.15;;;11.20;99.90;;;;;;5067824;28;20182;-79
2023/01/02 01:34:56;;;;;;;10.50;6.93;;;11.30;99.90;;;;;;5049979;28;20259;-79
2023/01/02 01:37:22;;;;;;;12.95;7.35;;;11.30;99.90;;;;;;5035219;28;20188;-78
2023/01/02 01:39:47;;;;;;;11.02;7.43;;;11.30;99.90;;;;;;5028173;28;20211;-79
2023/01/02 01:42:14;;;;;;;10.68;7.63;;;11.30;99.90;;;;;;5049714;28;20279;-79
2023/01/02 01:44:49;;;;;;;12.10;8.27;;;11.30;99.90;;;;;;5033025;28;20541;-79
2023/01/02 01:47:33;;;;;;;11.82;8.00;;;11.30;99.90;;;;;;5035252;28;20225;-79
2023/01/02 01:50:01;;;;;;;12.27;8.90;;;11.30;99.90;;;;;;5049807;28;20262;-80
2023/01/02 01:52:28;;;;;;;13.98;9.40;;;11.40;99.90;;;;;;5050187;28;20270;-79
2023/01/02 01:55:06;;;;;;;14.82;9.40;;;11.40;99.90;;;;;;5026636;28;20256;-79
2023/01/02 01:57:43;;;;;;;13.18;9.25;;;11.40;99.90;;;;;;5016698;28;20164;-79
2023/01/02 02:00:10;;;;;;;13.35;9.32;;;11.40;99.90;;;;;;5033216;28;20263;-78
2023/01/02 02:02:37;;;;;;;18.40;9.82;;;11.40;99.90;;;;;;5034093;28;20647;-80
2023/01/02 02:05:05;;;;;;;15.65;9.98;;;11.40;99.90;;;;;;5054532;28;20639;-79
2023/01/02 02:07:34;;;;;;;17.20;10.80;;;11.40;99.90;;;;;;5086723;28;20258;-81
2023/01/02 02:10:07;;;;;;;17.08;10.48;;;11.50;99.90;;;;;;5044241;28;20198;-80
2023/01/02 02:12:33;;;;;;;14.32;9.60;;;11.50;99.90;;;;;;5032880;28;20664;-81
2023/01/02 02:14:59;;;;;;;15.80;10.10;;;11.50;99.90;;;;;;5047681;28;20207;-81
2023/01/02 02:17:25;;;;;;;16.27;10.20;;;11.50;99.90;;;;;;5033907;28;20216;-82
2023/01/02 02:20:19;;;;;;;15.25;10.43;;;11.50;99.90;;;;;;5039825;28;20282;-81
2023/01/02 02:23:04;;;;;;;16.40;10.70;;;11.50;99.90;;;;;;5032188;28;20206;-81
2023/01/02 02:25:52;;;;;;;16.13;10.45;;;11.50;99.90;;;;;;5044661;28;20234;-80
2023/01/02 02:28:40;;;;;;;15.40;10.32;;;11.50;99.90;;;;;;5043859;28;20192;-80
2023/01/02 02:31:15;;;;;;;15.45;10.02;;;11.50;99.90;;;;;;5033405;28;20183;-81
2023/01/02 02:34:15;;;;;;;16.08;10.23;;;11.60;99.90;;;;;;5033498;28;20179;-80
2023/01/02 02:37:06;;;;;;;14.63;10.50;;;11.60;99.90;;;;;;5014400;28;20168;-81
2023/01/02 02:39:53;;;;;;;14.90;9.77;;;11.60;99.90;;;;;;5031883;28;20253;-81
2023/01/02 02:42:57;;;;;;;15.80;10.02;;;11.60;99.90;;;;;;5065564;28;20619;-80
2023/01/02 02:45:48;;;;;;;15.18;9.75;;;11.60;99.90;;;;;;5015514;28;20227;-80
2023/01/02 02:48:24;;;;;;;13.60;9.98;;;11.60;99.90;;;;;;5029703;28;20189;-81
2023/01/02 02:51:15;;;;;;;16.15;10.13;;;11.60;99.90;;;;;;5027755;28;20199;-80
2023/01/02 02:53:51;;;;;;;15.65;10.60;;;11.60;99.90;;;;;;5049590;28;20175;-81
2023/01/02 02:56:19;;;;;;;15.35;10.60;;;11.60;99.90;;;;;;5064026;28;20180;-80
2023/01/02 02:58:45;;;;;;;17.58;10.65;;;11.70;99.90;;;;;;5033600;28;20209;-81
2023/01/02 03:01:14;;;;;;;14.75;10.88;;;11.70;99.90;;;;;;5032119;28;20187;-81
2023/01/02 03:03:40;;;;;;;17.90;10.65;;;11.70;99.90;;;;;;5033611;28;20172;-81
2023/01/02 03:06:12;;;;;;;15.95;11.20;;;11.70;99.90;;;;;;5062275;28;20233;-81
2023/01/02 03:08:41;;;;;;;15.20;10.80;;;11.70;99.90;;;;;;5085821;28;20179;-81
2023/01/02 03:11:08;;;;;;;17.92;11.05;;;11.70;99.90;;;;;;5049389;28;20263;-81
2023/01/02 03:13:53;;;;;;;16.40;11.57;;;11.70;99.90;;;;;;5033650;28;20207;-81
2023/01/02 03:16:26;;;;;;;17.10;10.80;;;11.70;99.90;;;;;;5019791;28;20226;-81
2023/01/02 03:18:55;;;;;;;19.23;11.50;;;11.70;99.90;;;;;;5033626;28;20203;-81
2023/01/02 03:21:43;;;;;;;14.05;11.00;;;11.70;99.90;;;;;;5030965;28;20593;-82
2023/01/02 03:24:12;;;;;;;16.23;10.65;;;11.80;99.90;;;;;;5032660;28;20180;-81
2023/01/02 03:26:42;;;;;;;16.23;11.10;;;11.80;99.90;;;;;;5045319;28;20169;-81
2023/01/02 03:29:15;;;;;;;15.98;11.18;;;11.80;99.90;;;;;;5029222;28;20190;-81
2023/01/02 03:31:44;;;;;;;15.15;10.95;;;11.80;99.90;;;;;;5063798;28;20168;-81
2023/01/02 03:34:14;;;;;;;16.15;11.30;;;11.80;99.90;;;;;;5031468;28;20168;-84
2023/01/02 03:36:44;;;;;;;13.60;11.00;;;11.80;99.90;;;;;;5032209;28;20184;-80
2023/01/02 03:39:16;;;;;;;20.77;12.25;;;11.80;99.90;;;;;;5046751;28;20215;-81
2023/01/02 03:41:56;;;;;;;20.73;11.43;;;11.80;99.90;;;;;;5013584;28;20188;-79
2023/01/02 03:44:27;;;;;;;17.90;11.77;;;11.80;99.90;;;;;;5047584;28;20233;-79
2023/01/02 03:47:17;;;;;;;18.48;12.00;;;11.80;99.90;;;;;;5047615;28;20238;-79
2023/01/02 03:49:49;;;;;;;20.92;12.00;;;11.80;99.90;;;;;;5031782;28;20291;-88
2023/01/02 03:52:17;;;;;;;16.42;12.30;;;11.80;99.90;;;;;;5048303;28;20164;-80
2023/01/02 03:54:43;;;;;;;24.27;12.55;;;11.80;99.90;;;;;;5030881;28;20172;-82
2023/01/02 03:57:11;;;;;;;25.00;12.93;;;11.90;99.90;;;;;;5048855;28;20263;-80
2023/01/02 03:59:55;;;;;;;22.58;14.95;;;11.90;99.90;;;;;;5032641;28;20235;-80
2023/01/02 04:02:41;;;;;;;24.75;14.05;;;11.90;99.90;;;;;;5030683;28;20275;-81
2023/01/02 04:05:30;;;;;;;25.02;14.10;;;11.90;99.90;;;;;;5037202;28;20210;-81
2023/01/02 04:08:12;;;;;;;28.63;14.85;;;11.90;99.90;;;;;;5028558;28;20232;-80
2023/01/02 04:10:39;;;;;;;26.58;15.48;;;11.90;99.90;;;;;;5025598;28;20175;-81
2023/01/02 04:13:16;;;;;;;24.60;14.73;;;11.90;99.90;;;;;;5048342;28;20176;-80
2023/01/02 04:15:45;;;;;;;28.45;16.23;;;11.90;99.90;;;;;;5031869;28;20184;-81
2023/01/02 04:18:22;;;;;;;26.42;16.17;;;11.90;99.90;;;;;;5031444;28;20231;-81
2023/01/02 04:20:52;;;;;;;26.15;16.45;;;11.90;99.90;;;;;;5047699;28;20729;-81
2023/01/02 04:23:31;;;;;;;28.60;16.33;;;11.90;99.90;;;;;;5031136;28;20544;-80
2023/01/02 04:26:03;;;;;;;27.17;16.10;;;11.90;99.90;;;;;;5031681;28;20203;-81
2023/01/02 04:28:31;;;;;;;31.33;16.73;;;12.00;99.90;;;;;;5047156;28;20195;-81
2023/01/02 04:31:02;;;;;;;26.52;16.23;;;12.00;99.90;;;;;;5063773;28;20694;-80
2023/01/02 04:33:30;;;;;;;27.38;15.77;;;12.00;99.90;;;;;;5032774;28;20194;-81
2023/01/02 04:35:56;;;;;;;26.35;16.35;;;12.00;99.90;;;;;;5031744;28;20187;-80
2023/01/02 04:38:22;;;;;;;26.42;16.25;;;12.00;99.90;;;;;;5044664;28;20204;-81
2023/01/02 04:40:48;;;;;;;24.63;16.15;;;12.00;99.90;;;;;;5058042;28;20184;-84
2023/01/02 04:43:20;;;;;;;27.38;16.13;;;12.00;99.90;;;;;;5031337;28;20184;-81
2023/01/02 04:45:47;;;;;;;30.20;16.08;;;12.00;99.90;;;;;;5033359;28;20184;-81
2023/01/02 04:48:13;;;;;;;27.88;16.63;;;12.00;99.90;;;;;;5068344;28;20258;-82
2023/01/02 04:50:39;;;;;;;26.38;16.55;;;12.00;99.90;;;;;;5051041;28;20636;-81
2023/01/02 04:53:05;;;;;;;25.08;16.17;;;12.00;99.90;;;;;;5035549;28;20271;-80
2023/01/02 04:55:30;;;;;;;25.83;15.90;;;12.00;99.90;;;;;;5035160;28;20188;-81
2023/01/02 04:57:57;;;;;;;27.98;15.90;;;12.00;99.90;;;;;;5067354;28;20628;-82
2023/01/02 05:00:23;;;;;;;25.70;16.52;;;12.10;99.90;;;;;;5049872;28;20639;-81
2023/01/02 05:02:49;;;;;;;25.10;15.15;;;12.00;99.90;;;;;;5051336;28;20187;-80
2023/01/02 05:05:14;;;;;;;23.10;15.65;;;12.00;99.90;;;;;;5037233;28;20179;-81
2023/01/02 05:07:40;;;;;;;21.50;14.30;;;12.10;99.90;;;;;;5041219;28;20596;-80
2023/01/02 05:10:07;;;;;;;22.55;13.77;;;12.10;99.90;;;;;;5020076;28;20521;-81
2023/01/02 05:12:34;;;;;;;19.02;12.50;;;12.10;99.90;;;;;;5016004;28;20256;-82
2023/01/02 05:15:00;;;;;;;16.45;11.32;;;12.10;99.90;;;;;;5029853;28;20279;-81
2023/01/02 05:17:26;;;;;;;17.40;11.13;;;12.10;99.90;;;;;;5048165;28;20181;-81
2023/01/02 05:19:52;;;;;;;17.02;10.27;;;12.00;99.90;;;;;;5016859;28;20211;-81
2023/01/02 05:25:02;;;;;;;13.85;10.15;;;12.10;99.90;;;;;;5022134;28;20314;-80
2023/01/02 05:27:28;;;;;;;13.55;9.50;;;12.10;99.90;;;;;;5034449;28;20275;-81
2023/01/02 05:29:53;;;;;;;12.55;8.88;;;12.10;99.90;;;;;;5049826;28;20184;-81
2023/01/02 05:32:19;;;;;;;12.18;9.32;;;12.10;99.90;;;;;;5050841;28;20254;-81
2023/01/02 05:34:45;;;;;;;13.00;9.00;;;12.10;99.90;;;;;;5049669;28;20282;-81
2023/01/02 05:37:10;;;;;;;14.40;9.48;;;12.10;99.90;;;;;;5050820;28;20176;-81
2023/01/02 05:39:36;;;;;;;13.90;9.23;;;12.10;99.90;;;;;;5040914;28;20208;-81
2023/01/02 05:42:02;;;;;;;11.57;9.23;;;12.10;99.90;;;;;;5046954;28;20208;-81
2023/01/02 05:44:27;;;;;;;14.93;9.13;;;12.10;99.90;;;;;;5063914;28;20640;-81
2023/01/02 05:46:53;;;;;;;12.10;9.38;;;12.10;99.90;;;;;;5050353;28;20191;-81
2023/01/02 05:49:19;;;;;;;10.68;8.82;;;12.10;99.90;;;;;;5047911;28;20330;-81
2023/01/02 05:51:45;;;;;;;12.82;9.05;;;12.10;99.90;;;;;;5034350;28;20659;-80
2023/01/02 05:54:11;;;;;;;13.55;9.50;;;12.10;99.90;;;;;;5049244;28;20184;-80
2023/01/02 05:56:37;;;;;;;11.85;8.90;;;12.10;99.90;;;;;;5049821;28;20181;-81
2023/01/02 05:59:06;;;;;;;11.38;9.38;;;12.10;99.90;;;;;;5014074;28;20270;-82
2023/01/02 06:01:33;;;;;;;11.57;8.45;;;12.10;99.90;;;;;;5033813;28;20558;-81
2023/01/02 06:03:59;;;;;;;12.07;8.18;;;12.10;99.90;;;;;;5049961;28;20620;-83
2023/01/02 06:06:34;;;;;;;11.43;8.35;;;12.10;99.90;;;;;;5050870;28;20270;-81
2023/01/02 06:09:01;;;;;;;9.95;7.93;;;12.10;99.90;;;;;;5069053;28;20269;-83
2023/01/02 06:11:30;;;;;;;10.88;8.40;;;12.10;99.90;;;;;;5059635;28;20187;-81
2023/01/02 06:13:57;;;;;;;10.50;8.18;;;12.10;99.90;;;;;;5037252;28;20184;-81
2023/01/02 06:16:23;;;;;;;9.98;8.10;;;12.20;99.90;;;;;;5031319;28;20188;-80
2023/01/02 06:18:50;;;;;;;12.32;8.68;;;12.20;99.90;;;;;;5036890;28;20295;-80
2023/01/02 06:21:18;;;;;;;9.50;8.07;;;12.20;99.90;;;;;;5064088;28;20192;-80
2023/01/02 06:23:44;;;;;;;10.27;8.10;;;12.10;99.90;;;;;;5049910;28;20184;-80
2023/01/02 06:26:15;;;;;;;10.13;8.23;;;12.10;99.90;;;;;;5061620;28;20210;-80
2023/01/02 06:28:41;;;;;;;10.32;7.57;;;12.20;99.90;;;;;;5066476;28;20172;-83
2023/01/02 06:31:13;;;;;;;9.20;7.20;;;12.20;99.90;;;;;;5033284;28;20228;-81
2023/01/02 06:33:39;;;;;;;11.07;6.70;;;12.10;99.90;;;;;;5047059;28;20176;-81
2023/01/02 06:36:14;;;;;;;8.18;6.95;;;12.10;99.90;;;;;;5030530;28;20184;-80
2023/01/02 06:38:39;;;;;;;9.85;6.90;;;12.10;99.90;;;;;;5032923;28;20202;-80
2023/01/02 06:41:07;;;;;;;9.50;6.40;;;12.10;99.90;;;;;;5030585;28;20188;-81
2023/01/02 06:43:34;;;;;;;7.55;6.15;;;12.10;99.90;;;;;;5046948;28;20192;-80
2023/01/02 06:46:01;;;;;;;6.53;5.82;;;12.10;99.90;;;;;;5038664;28;20655;-83
2023/01/02 06:48:27;;;;;;;6.85;5.93;;;12.10;99.90;;;;;;5014196;28;20223;-80
2023/01/02 06:50:54;;;;;;;8.00;6.30;;;12.10;99.90;;;;;;5028352;28;20180;-80
2023/01/02 06:53:19;;;;;;;7.43;6.60;;;12.10;99.90;;;;;;5048981;28;20186;-80
2023/01/02 06:55:57;;;;;;;11.25;6.70;;;12.10;99.90;;;;;;5046619;28;20272;-79
2023/01/02 06:58:24;;;;;;;9.65;7.20;;;12.10;99.90;;;;;;5033145;28;20717;-81
2023/01/02 07:00:50;;;;;;;9.18;7.80;;;12.10;99.90;;;;;;5064398;28;20192;-79
2023/01/02 07:03:17;;;;;;;10.40;8.95;;;12.10;99.90;;;;;;5031789;28;20719;-80
2023/01/02 07:05:42;;;;;;;11.65;9.73;;;12.10;99.90;;;;;;5053344;28;20202;-78
2023/01/02 07:08:09;;;;;;;11.57;9.55;;;12.10;99.90;;;;;;5053626;28;20248;-78
2023/01/02 07:10:35;;;;;;;12.48;9.82;;;12.00;99.90;;;;;;5070113;28;20203;-78
2023/01/02 07:13:00;;;;;;;11.63;9.57;;;11.90;99.90;;;;;;5065042;28;20172;-79
2023/01/02 07:15:26;;;;;;;10.27;7.03;;;11.90;99.90;;;;;;5047599;28;20676;-81
2023/01/02 07:17:52;;;;;;;9.15;5.80;;;11.80;99.90;;;;;;5065496;28;20215;-80
2023/01/02 07:20:18;;;;;;;7.22;5.18;;;11.70;99.90;;;;;;5032582;28;20200;-80
2023/01/02 07:22:52;;;;;;;8.02;4.80;;;11.60;99.90;;;;;;5030454;28;20282;-80
2023/01/02 07:25:18;;;;;;;7.72;4.28;;;11.40;99.90;;;;;;5032209;28;20176;-80
2023/01/02 07:27:44;;;;;;;5.65;3.40;;;11.30;99.90;;;;;;5048698;28;20260;-80
2023/01/02 07:30:11;;;;;;;4.88;2.95;;;11.10;99.90;;;;;;5024025;28;20589;-80
2023/01/02 07:32:37;;;;;;;3.67;2.90;;;11.10;99.90;;;;;;5031725;28;20203;-79
2023/01/02 07:35:03;;;;;;;3.60;2.05;;;11.00;99.90;;;;;;5014819;28;20184;-80
2023/01/02 07:37:28;;;;;;;3.67;2.35;;;10.90;99.90;;;;;;5030995;28;20651;-81
2023/01/02 07:39:54;;;;;;;3.22;1.80;;;10.80;99.90;;;;;;5024281;28;20227;-80
2023/01/02 07:42:20;;;;;;;3.17;1.33;;;10.70;99.90;;;;;;5043182;28;20205;-80
2023/01/02 07:44:45;;;;;;;2.28;1.10;;;10.70;99.90;;;;;;5034099;28;20188;-80
2023/01/02 07:47:11;;;;;;;1.75;1.02;;;10.50;99.90;;;;;;5022459;28;20545;-78
2023/01/02 07:49:37;;;;;;;2.45;1.00;;;10.50;99.90;;;;;;5029573;28;20223;-78
2023/01/02 07:52:03;;;;;;;3.65;1.20;;;10.40;99.90;;;;;;5012473;28;20176;-80
2023/01/02 07:54:28;;;;;;;3.60;1.10;;;10.30;99.90;;;;;;5017948;28;20176;-79
2023/01/02 07:56:54;;;;;;;3.58;1.08;;;10.20;99.90;;;;;;5063751;28;20256;-79
2023/01/02 07:59:20;;;;;;;2.97;0.98;;;10.20;99.90;;;;;;5041897;28;20218;-78
2023/01/02 08:01:46;;;;;;;4.15;1.40;;;10.10;99.90;;;;;;5065123;28;20321;-77
2023/01/02 08:04:12;;;;;;;2.75;1.20;;;10.10;99.90;;;;;;5054128;28;20636;-79
2023/01/02 08:06:40;;;;;;;2.65;1.20;;;10.10;99.90;;;;;;5051518;28;20227;-80
2023/01/02 08:09:06;;;;;;;2.90;1.55;;;10.00;99.90;;;;;;5069343;28;20172;-80
2023/01/02 08:11:32;;;;;;;4.70;1.40;;;10.00;99.90;;;;;;5032685;28;20699;-80
2023/01/02 08:13:57;;;;;;;4.55;1.60;;;10.00;99.90;;;;;;5048490;28;20314;-82
2023/01/02 08:16:23;;;;;;;3.20;1.30;;;10.00;99.90;;;;;;5032274;28;20191;-79
2023/01/02 08:18:54;;;;;;;4.75;1.40;;;10.00;99.90;;;;;;5033869;28;20698;-78
2023/01/02 08:21:21;;;;;;;4.47;1.52;;;10.00;99.90;;;;;;5067850;28;20203;-78
2023/01/02 08:23:46;;;;;;;4.47;1.77;;;10.00;99.90;;;;;;5031230;28;20228;-78
2023/01/02 08:26:12;;;;;;;2.88;2.00;;;10.00;99.90;;;;;;5036081;28;20549;-79
2023/01/02 08:28:39;;;;;;;2.10;1.88;;;10.00;99.90;;;;;;5034617;28;20188;-78
2023/01/02 08:31:10;;;;;;;4.30;1.80;;;10.00;99.90;;;;;;5035127;28;20179;-80
2023/01/02 08:33:36;;;;;;;5.70;2.53;;;10.00;99.90;;;;;;5023759;28;20246;-79
2023/01/02 08:36:02;;;;;;;2.83;1.58;;;10.00;99.90;;;;;;5036907;28;20627;-78
2023/01/02 08:38:28;;;;;;;4.00;2.00;;;10.00;99.90;;;;;;5053974;28;20207;-78
2023/01/02 08:40:53;;;;;;;4.80;1.70;;;9.90;99.90;;;;;;5027690;28;20200;-79
2023/01/02 08:43:19;;;;;;;5.13;2.10;;;10.00;99.90;;;;;;5050870;28;20191;-77
2023/01/02 08:45:45;;;;;;;4.15;1.70;;;10.00;99.90;;;;;;5039235;28;20192;-78
2023/01/02 08:48:10;;;;;;;7.00;1.92;;;9.90;99.90;;;;;;5016368;28;20243;-78
2023/01/02 08:50:36;;;;;;;3.65;1.90;;;10.00;99.90;;;;;;5029207;28;20187;-79
2023/01/02 08:53:02;;;;;;;6.82;2.10;;;10.00;99.90;;;;;;5034083;28;20567;-77
2023/01/02 08:55:28;;;;;;;6.25;1.90;;;10.00;99.90;;;;;;5050305;28;20265;-77
2023/01/02 08:57:53;;;;;;;6.90;2.80;;;10.00;99.90;;;;;;5033980;28;20186;-78
2023/01/02 09:00:19;;;;;;;7.22;2.50;;;9.90;99.90;;;;;;5066745;28;20255;-80
2023/01/02 09:02:45;;;;;;;4.35;2.08;;;9.90;99.90;;;;;;5067492;28;20187;-79
2023/01/02 09:05:10;;;;;;;6.78;2.40;;;10.00;99.90;;;;;;5028852;28;20261;-78
2023/01/02 09:07:36;;;;;;;4.57;2.15;;;9.90;99.90;;;;;;5063691;28;20361;-79
2023/01/02 09:10:02;;;;;;;2.47;1.80;;;9.90;99.90;;;;;;5034046;28;20746;-79
2023/01/02 09:12:28;;;;;;;7.30;2.28;;;9.90;99.90;;;;;;5051211;28;20191;-79
2023/01/02 09:14:54;;;;;;;6.72;2.70;;;9.90;99.90;;;;;;5031055;28;20578;-80
2023/01/02 09:17:19;;;;;;;6.32;2.63;;;9.90;99.90;;;;;;5032495;28;20553;-78
2023/01/02 09:19:45;;;;;;;6.28;2.40;;;9.90;99.90;;;;;;5050228;28;20204;-81
2023/01/02 09:22:11;;;;;;;7.68;2.83;;;9.90;99.90;;;;;;5034554;28;20195;-80
2023/01/02 09:24:37;;;;;;;6.40;2.35;;;9.80;99.90;;;;;;5028681;28;20191;-77
2023/01/02 09:27:03;;;;;;;6.78;2.40;;;9.90;99.90;;;;;;5035917;28;20207;-80
2023/01/02 09:29:28;;;;;;;5.85;1.98;;;9.90;99.90;;;;;;5033564;28;20204;-77
2023/01/02 09:31:54;;;;;;;6.90;2.00;;;9.90;99.90;;;;;;5027317;28;20177;-77
2023/01/02 09:34:20;;;;;;;5.45;2.42;;;9.80;99.90;;;;;;5032748;28;20196;-79
2023/01/02 09:36:46;;;;;;;4.38;2.60;;;9.90;99.90;;;;;;5049105;28;20184;-77
2023/01/02 09:39:12;;;;;;;5.88;2.65;;;9.90;99.90;;;;;;5031082;28;20215;-79
2023/01/02 09:41:42;;;;;;;4.88;2.45;;;9.90;99.90;;;;;;5029364;28;20198;-78
2023/01/02 09:44:25;;;;;;;4.68;2.70;;;9.90;99.90;;;;;;5031465;28;20604;-79
2023/01/02 09:47:01;;;;;;;4.45;2.30;;;9.90;99.90;;;;;;5016886;28;20171;-78
2023/01/02 09:49:30;;;;;;;7.00;2.72;;;9.90;99.90;;;;;;5018348;28;20192;-78
2023/01/02 09:51:56;;;;;;;5.32;2.63;;;9.90;99.90;;;;;;5022659;28;20207;-80
2023/01/02 09:54:32;;;;;;;10.57;2.92;;;9.90;99.90;;;;;;5016746;28;20180;-79
2023/01/02 09:57:11;;;;;;;6.97;3.17;;;9.90;99.90;;;;;;5031384;28;20189;-78
2023/01/02 10:00:08;;;;;;;6.53;3.20;;;9.90;99.90;;;;;;5055462;28;20271;-78
2023/01/02 10:02:53;;;;;;;8.30;3.30;;;9.90;99.90;;;;;;5033817;28;20186;-78
2023/01/02 10:05:38;;;;;;;5.82;3.08;;;9.90;99.90;;;;;;5065049;28;20694;-77
2023/01/02 10:08:56;;;;;;;6.10;3.08;;;9.90;99.90;;;;;;5065818;28;20318;-78
2023/01/02 10:11:44;;;;;;;6.25;3.10;;;9.90;99.90;;;;;;5022935;28;20226;-78
2023/01/02 10:14:34;;;;;;;5.30;2.90;;;9.90;99.90;;;;;;5056298;28;20212;-78
2023/01/02 10:17:02;;;;;;;3.88;2.80;;;9.80;99.90;;;;;;5032723;28;20644;-77
2023/01/02 10:19:51;;;;;;;5.22;3.10;;;9.80;99.90;;;;;;5026916;28;20196;-77
2023/01/02 10:22:21;;;;;;;8.48;2.88;;;9.90;99.90;;;;;;5031826;28;20188;-79
2023/01/02 10:25:07;;;;;;;5.28;3.00;;;9.80;99.90;;;;;;5028066;28;20263;-79
2023/01/02 10:27:41;;;;;;;8.48;2.78;;;9.80;99.90;;;;;;5019894;28;20215;-78
2023/01/02 10:30:23;;;;;;;5.90;2.53;;;9.80;99.90;;;;;;5026425;28;20187;-78
2023/01/02 10:33:13;;;;;;;6.07;2.88;;;9.80;99.90;;;;;;5048622;28;20180;-79
2023/01/02 10:35:44;;;;;;;4.60;2.67;;;9.80;99.90;;;;;;5029851;28;20188;-79
2023/01/02 10:38:13;;;;;;;4.43;2.67;;;9.80;99.90;;;;;;5031422;28;20644;-78
2023/01/02 10:40:43;;;;;;;3.97;2.55;;;9.80;99.90;;;;;;5020128;28;20263;-78
2023/01/02 10:43:10;;;;;;;4.70;2.88;;;9.80;99.90;;;;;;5030963;28;20173;-78
2023/01/02 10:45:36;;;;;;;5.78;2.50;;;9.80;99.90;;;;;;5027093;28;20704;-78
2023/01/02 10:48:02;;;;;;;4.32;2.42;;;9.80;99.90;;;;;;5016642;28;20184;-79
2023/01/02 10:50:34;;;;;;;6.43;3.13;;;9.80;99.90;;;;;;5043912;28;20648;-78
2023/01/02 10:53:17;;;;;;;6.05;3.15;;;9.80;99.90;;;;;;5032128;28;20207;-78
2023/01/02 10:55:44;;;;;;;6.15;3.25;;;9.80;99.90;;;;;;5031410;28;20192;-78
2023/01/02 10:58:25;;;;;;;5.78;3.17;;;9.80;99.90;;;;;;5046906;28;20212;-78
2023/01/02 11:01:20;;;;;;;5.45;2.60;;;9.80;99.90;;;;;;5046549;28;20194;-79
2023/01/02 11:04:11;;;;;;;5.07;2.42;;;9.80;99.90;;;;;;5030798;28;20644;-78
2023/01/02 11:06:57;;;;;;;4.60;2.42;;;9.80;99.90;;;;;;5053623;28;20229;-79
2023/01/02 11:09:34;;;;;;;5.72;2.58;;;9.90;99.90;;;;;;5030933;28;20186;-79
2023/01/02 11:12:06;;;;;;;4.88;2.40;;;9.90;99.90;;;;;;5017949;28;20190;-79
2023/01/02 11:14:34;;;;;;;5.90;2.83;;;9.90;99.90;;;;;;5017803;28;20187;-78
2023/01/02 11:17:15;;;;;;;6.60;2.78;;;10.00;99.90;;;;;;5041652;28;20256;-77
2023/01/02 11:19:43;;;;;;;11.15;2.92;;;10.00;99.90;;;;;;5024554;28;20238;-78
2023/01/02 11:22:11;;;;;;;5.35;2.63;;;10.00;99.90;;;;;;5030380;28;20172;-79
2023/01/02 11:24:51;;;;;;;8.32;2.50;;;10.10;99.90;;;;;;5063518;28;20210;-77
2023/01/02 11:27:17;;;;;;;9.38;2.67;;;10.10;99.90;;;;;;5047686;28;20175;-77
2023/01/02 11:29:46;;;;;;;6.60;3.08;;;10.20;99.90;;;;;;5019103;28;20188;-77
2023/01/02 11:32:41;;;;;;;4.80;2.50;;;10.20;99.90;;;;;;5026502;28;20181;-78
2023/01/02 11:35:43;;;;;;;6.93;2.40;;;10.30;99.90;;;;;;5019551;28;20196;-78
2023/01/02 11:38:26;;;;;;;4.35;2.47;;;10.40;99.90;;;;;;5018328;28;20180;-79
2023/01/02 11:40:58;;;;;;;6.70;2.30;;;10.60;99.90;;;;;;5016954;28;20194;-78
2023/01/02 11:43:50;;;;;;;5.18;2.40;;;10.70;99.90;;;;;;5027152;28;20527;-80
2023/01/02 11:46:35;;;;;;;5.75;2.30;;;10.80;99.90;;;;;;5031888;28;20250;-77
2023/01/02 11:49:05;;;;;;;7.80;2.45;;;10.90;99.90;;;;;;5030475;28;20275;-80
2023/01/02 11:51:35;;;;;;;8.35;2.60;;;10.90;99.90;;;;;;5030848;28;20576;-77
2023/01/02 11:54:03;;;;;;;4.95;2.55;;;10.90;99.90;;;;;;5029436;28;20183;-78
2023/01/02 11:56:36;;;;;;;11.02;2.63;;;10.90;99.90;;;;;;5032479;28;20284;-77
2023/01/02 11:59:13;;;;;;;5.10;2.20;;;10.90;99.90;;;;;;5028549;28;20681;-84
2023/01/02 12:02:01;;;;;;;7.05;2.63;;;10.90;99.90;;;;;;5025653;28;20219;-79
2023/01/02 12:04:27;;;;;;;6.95;2.20;;;10.80;99.90;;;;;;5017829;28;20222;-79
2023/01/02 12:07:37;;;;;;;11.80;2.90;;;10.80;99.90;;;;;;5033611;28;20278;-77
2023/01/02 12:10:41;;;;;;;6.35;2.50;;;10.80;99.90;;;;;;5025379;28;20326;-77
2023/01/02 12:13:13;;;;;;;7.50;2.17;;;10.70;99.90;;;;;;5032269;28;20222;-79
2023/01/02 12:16:10;;;;;;;7.85;2.33;;;10.70;99.90;;;;;;5030468;28;20438;-78
2023/01/02 12:18:42;;;;;;;7.15;2.17;;;10.70;99.90;;;;;;5032176;28;20206;-78
2023/01/02 12:21:10;;;;;;;10.68;2.33;;;10.60;99.90;;;;;;5031386;28;20246;-81
2023/01/02 12:23:52;;;;;;;6.63;2.10;;;10.60;99.90;;;;;;5031773;28;20176;-79
2023/01/02 12:26:35;;;;;;;7.88;2.20;;;10.50;99.90;;;;;;5031115;28;20263;-78
2023/01/02 12:29:18;;;;;;;8.88;1.85;;;10.50;99.90;;;;;;5031804;28;20175;-79
2023/01/02 12:32:11;;;;;;;10.73;1.90;;;10.50;99.90;;;;;;5030274;28;20187;-78
2023/01/02 12:34:58;;;;;;;4.93;1.83;;;10.40;99.90;;;;;;5031438;28;20569;-78
2023/01/02 12:37:37;;;;;;;14.13;2.17;;;10.40;99.90;;;;;;5029047;28;20180;-77
2023/01/02 12:40:29;;;;;;;8.55;2.03;;;10.40;99.90;;;;;;5029296;28;20196;-78
2023/01/02 12:43:00;;;;;;;8.02;2.10;;;10.30;99.90;;;;;;5017477;28;20181;-78
2023/01/02 12:46:04;;;;;;;9.35;2.00;;;10.30;99.90;;;;;;5034189;28;20177;-78
2023/01/02 12:48:48;;;;;;;9.38;2.10;;;10.30;99.90;;;;;;5025596;28;20179;-79
2023/01/02 12:51:35;;;;;;;15.57;2.47;;;10.30;99.90;;;;;;5029913;28;20186;-79
2023/01/02 12:54:10;;;;;;;11.70;2.33;;;10.30;99.90;;;;;;5046232;28;20192;-79
2023/01/02 12:56:54;;;;;;;14.25;3.17;;;10.30;99.90;;;;;;5012979;28;20203;-78
2023/01/02 12:59:36;;;;;;;7.95;2.20;;;10.30;99.90;;;;;;5044022;28;20254;-77
2023/01/02 13:02:14;;;;;;;10.27;2.38;;;10.30;99.90;;;;;;5023536;28;20193;-77
2023/01/02 13:04:54;;;;;;;15.20;2.92;;;10.30;99.90;;;;;;5019918;28;20195;-77
2023/01/02 13:07:32;;;;;;;12.85;2.72;;;10.30;99.90;;;;;;5054023;28;20227;-77